LF1153 weather

Ulmodrome de Limoux
Limoux, Limousin, France

Public forecast

Using degrees Celsius for public forecast. Weather courtesy of forecast.io.

METAR (pilot weather report)

Closest report is Carcassonne Airport, 10.2 nm (18.9 km) NNE. Retrieved 2019/09/19 20:30 UTC (0 seconds ago):

LFMK 192030Z AUTO 17004KT 140V210 CAVOK 19/17 Q1018

TAF (pilot weather forecast)

Closest forecast is Carcassonne Airport, 10.2 nm (18.9 km) NNE. Retrieved 2019/09/19 18:07 UTC (2 hours ago):

TAF LFMK 191800Z 1918/2015 CNL